createdAt,value
2023-06-26T00:01:59.977Z,44.47
2023-06-26T00:04:02.322Z,44.39
2023-06-26T00:06:04.138Z,44.29
2023-06-26T00:08:06.987Z,44.31
2023-06-26T00:10:08.577Z,44.25
2023-06-26T00:12:10.137Z,44.44
2023-06-26T00:14:11.605Z,44.53
2023-06-26T00:16:13.419Z,44.45
2023-06-26T00:18:14.938Z,44.46
2023-06-26T00:20:17.469Z,44.35
2023-06-26T00:22:19.417Z,44.63
2023-06-26T00:24:20.895Z,44.42
2023-06-26T00:26:22.408Z,44.48
2023-06-26T00:28:23.892Z,44.46
2023-06-26T00:30:25.539Z,44.77
2023-06-26T00:32:27.054Z,44.46
2023-06-26T00:34:28.659Z,44.35
2023-06-26T00:36:30.789Z,44.49
2023-06-26T00:38:32.669Z,44.56
2023-06-26T00:40:34.353Z,44.75
2023-06-26T00:42:35.819Z,44.39
2023-06-26T00:44:37.316Z,44.73
2023-06-26T00:46:38.878Z,44.86
2023-06-26T00:48:44.276Z,44.63
2023-06-26T00:50:47.417Z,44.74
2023-06-26T00:52:48.920Z,44.58
2023-06-26T00:54:52.458Z,44.64
2023-06-26T00:56:53.956Z,44.85
2023-06-26T00:58:55.460Z,44.96
2023-06-26T01:00:57.375Z,44.90
2023-06-26T01:03:00.911Z,44.71
2023-06-26T01:05:07.312Z,44.85
2023-06-26T01:07:09.201Z,44.66
2023-06-26T01:09:10.750Z,44.78
2023-06-26T01:11:13.067Z,44.70
2023-06-26T01:13:15.645Z,44.80
2023-06-26T01:15:17.192Z,44.76
2023-06-26T01:17:18.904Z,45.04
2023-06-26T01:19:26.345Z,44.82
2023-06-26T01:21:33.601Z,44.88
2023-06-26T01:23:48.698Z,45.03
2023-06-26T01:26:08.672Z,44.88
2023-06-26T01:28:10.414Z,45.24
2023-06-26T01:30:12.251Z,45.07
2023-06-26T01:32:13.768Z,45.04
2023-06-26T01:34:16.323Z,45.09
2023-06-26T01:36:17.936Z,44.93
2023-06-26T01:38:20.985Z,45.03
2023-06-26T01:40:22.549Z,45.40
2023-06-26T01:42:24.039Z,45.21
2023-06-26T01:44:28.306Z,45.29
2023-06-26T01:46:54.970Z,45.37
2023-06-26T01:49:00.768Z,45.14
2023-06-26T01:51:02.686Z,45.12
2023-06-26T01:53:08.227Z,45.08
2023-06-26T01:55:15.500Z,45.08
2023-06-26T01:59:26.939Z,45.32
2023-06-26T02:01:28.980Z,45.15
2023-06-26T02:03:31.759Z,45.14
2023-06-26T02:05:33.822Z,45.15
2023-06-26T02:07:35.319Z,45.21
2023-06-26T02:09:36.775Z,45.36
2023-06-26T02:11:38.289Z,45.23
2023-06-26T02:13:39.777Z,45.18
2023-06-26T02:15:41.204Z,45.24
2023-06-26T02:17:42.756Z,45.37
2023-06-26T02:19:48.678Z,45.64
2023-06-26T02:21:50.732Z,45.32
2023-06-26T02:23:52.313Z,45.24
2023-06-26T02:25:53.808Z,45.38
2023-06-26T02:27:55.988Z,45.48
2023-06-26T02:29:57.514Z,45.18
2023-06-26T02:31:59.016Z,45.33
2023-06-26T02:34:00.703Z,45.26
2023-06-26T02:36:02.342Z,45.34
2023-06-26T02:38:03.872Z,45.34
2023-06-26T02:40:06.144Z,45.42
2023-06-26T02:42:07.677Z,45.76
2023-06-26T02:44:09.284Z,45.63
2023-06-26T02:46:10.739Z,45.65
2023-06-26T02:48:12.223Z,45.48
2023-06-26T02:50:13.809Z,45.40
2023-06-26T02:52:15.333Z,45.23
2023-06-26T02:54:17.079Z,45.38
2023-06-26T02:56:18.575Z,45.42
2023-06-26T02:58:20.054Z,45.44
2023-06-26T03:00:21.613Z,45.33
2023-06-26T03:02:23.106Z,45.40
2023-06-26T03:04:24.810Z,45.77
2023-06-26T03:06:26.531Z,45.37
2023-06-26T03:08:28.039Z,45.44
2023-06-26T03:10:29.669Z,45.63
2023-06-26T03:12:31.148Z,45.66
2023-06-26T03:14:33.176Z,45.75
2023-06-26T03:16:34.800Z,45.70
2023-06-26T03:18:36.382Z,45.38
2023-06-26T03:20:38.287Z,45.46
2023-06-26T03:22:40.016Z,45.47
2023-06-26T03:24:41.581Z,45.64
2023-06-26T03:26:43.080Z,45.47
2023-06-26T03:28:47.439Z,45.47
2023-06-26T03:30:48.932Z,45.38
2023-06-26T03:32:50.446Z,45.50
2023-06-26T03:34:54.024Z,45.38
2023-06-26T03:36:55.614Z,45.47
2023-06-26T03:38:58.141Z,45.34
2023-06-26T03:40:59.885Z,45.75
2023-06-26T03:43:01.446Z,45.44
2023-06-26T03:45:03.314Z,45.38
2023-06-26T03:47:04.901Z,45.70
2023-06-26T03:49:07.489Z,45.35
2023-06-26T03:51:10.767Z,45.74
2023-06-26T03:53:12.317Z,45.62
2023-06-26T03:55:13.793Z,45.53
2023-06-26T03:57:15.346Z,45.58
2023-06-26T03:59:16.942Z,45.46
2023-06-26T04:01:18.468Z,45.43
2023-06-26T04:03:20.451Z,45.77
2023-06-26T04:05:21.998Z,45.58
2023-06-26T04:07:23.803Z,45.65
2023-06-26T04:09:25.405Z,45.45
2023-06-26T04:11:27.803Z,45.74
2023-06-26T04:13:29.241Z,45.70
2023-06-26T04:15:30.800Z,45.49
2023-06-26T04:17:32.417Z,45.43
2023-06-26T04:19:35.141Z,45.51
2023-06-26T04:21:37.319Z,45.70
2023-06-26T04:23:39.391Z,45.41
2023-06-26T04:29:48.724Z,45.43
2023-06-26T04:31:50.230Z,45.85
2023-06-26T04:33:52.024Z,45.53
2023-06-26T04:42:14.685Z,45.70
2023-06-26T04:44:16.282Z,45.33
2023-06-26T04:46:17.918Z,45.83
2023-06-26T04:48:19.421Z,45.62
2023-06-26T04:54:33.715Z,45.42
2023-06-26T04:56:35.483Z,45.42
2023-06-26T04:58:36.967Z,45.42
2023-06-26T05:00:38.670Z,45.48
2023-06-26T05:04:48.141Z,45.42
2023-06-26T05:06:49.725Z,45.43
2023-06-26T05:08:51.516Z,45.46
2023-06-26T05:10:54.500Z,45.37
2023-06-26T05:12:56.111Z,45.49
2023-06-26T05:17:04.245Z,45.46
2023-06-26T05:19:05.825Z,45.40
2023-06-26T05:21:07.713Z,45.41
2023-06-26T05:23:11.655Z,45.57
2023-06-26T05:25:14.011Z,45.68
2023-06-26T05:27:22.240Z,45.37
2023-06-26T05:31:32.108Z,45.34
2023-06-26T05:33:35.754Z,45.48
2023-06-26T05:35:37.458Z,45.36
2023-06-26T05:37:39.013Z,45.41
2023-06-26T05:43:49.185Z,45.39
2023-06-26T05:45:50.727Z,45.40
2023-06-26T05:47:52.430Z,45.80
2023-06-26T05:49:54.259Z,45.34
2023-06-26T05:56:09.240Z,45.47
2023-06-26T05:58:11.278Z,45.42
2023-06-26T06:00:13.204Z,45.54
2023-06-26T06:02:15.103Z,45.36
2023-06-26T06:08:29.712Z,45.54
2023-06-26T06:10:31.337Z,45.54
2023-06-26T06:12:33.214Z,45.36
2023-06-26T06:14:35.115Z,45.27
2023-06-26T06:18:42.892Z,45.31
2023-06-26T06:20:44.555Z,45.36
2023-06-26T06:22:46.360Z,45.70
2023-06-26T06:24:48.245Z,45.31
2023-06-26T06:26:49.739Z,45.66
2023-06-26T06:28:51.168Z,45.39
2023-06-26T06:30:52.971Z,45.39
2023-06-26T06:32:54.860Z,45.47
2023-06-26T06:34:56.350Z,45.35
2023-06-26T06:36:57.859Z,45.64
2023-06-26T06:38:59.419Z,45.63
2023-06-26T06:41:01.373Z,45.23
2023-06-26T06:43:03.384Z,45.21
2023-06-26T06:45:05.751Z,45.54
2023-06-26T06:47:07.490Z,45.31
2023-06-26T06:49:09.925Z,45.22
2023-06-26T06:51:11.437Z,45.19
2023-06-26T06:53:13.096Z,45.52
2023-06-26T06:55:14.658Z,45.35
2023-06-26T06:57:16.094Z,45.26
2023-06-26T07:01:24.004Z,45.51
2023-06-26T07:03:25.614Z,45.44
2023-06-26T07:05:27.207Z,45.31
2023-06-26T07:07:30.110Z,45.20
2023-06-26T07:09:31.587Z,45.16
2023-06-26T07:11:33.117Z,45.45
2023-06-26T07:13:34.689Z,45.14
2023-06-26T07:15:36.370Z,45.31
2023-06-26T07:17:39.832Z,44.93
2023-06-26T07:19:41.484Z,44.86
2023-06-26T07:21:44.489Z,44.94
2023-06-26T07:23:46.037Z,44.77
2023-06-26T07:25:47.591Z,44.91
2023-06-26T07:27:49.101Z,44.85
2023-06-26T07:29:50.652Z,45.17
2023-06-26T07:31:52.215Z,45.38
2023-06-26T07:33:53.688Z,45.51
2023-06-26T07:35:55.219Z,45.27
2023-06-26T07:37:56.917Z,45.30
2023-06-26T07:39:58.514Z,45.34
2023-06-26T07:42:02.845Z,45.28
2023-06-26T07:44:04.484Z,45.32
2023-06-26T07:46:06.050Z,45.23
2023-06-26T07:48:08.271Z,45.40
2023-06-26T07:50:09.900Z,45.11
2023-06-26T07:52:12.039Z,45.20
2023-06-26T07:54:13.606Z,45.13
2023-06-26T07:56:15.146Z,45.19
2023-06-26T07:58:16.671Z,45.18
2023-06-26T08:00:18.308Z,45.17
2023-06-26T08:02:19.883Z,45.43
2023-06-26T08:04:22.465Z,44.96
2023-06-26T08:06:24.876Z,44.93
2023-06-26T08:08:26.455Z,45.11
2023-06-26T08:16:46.475Z,44.78
2023-06-26T08:18:48.073Z,44.90
2023-06-26T08:20:49.707Z,45.09
2023-06-26T08:22:53.393Z,45.23
2023-06-26T08:24:55.168Z,44.76
2023-06-26T08:26:56.650Z,44.98
2023-06-26T08:28:58.158Z,44.92
2023-06-26T08:31:00.693Z,45.06
2023-06-26T08:33:02.473Z,45.16
2023-06-26T08:35:04.299Z,45.32
2023-06-26T08:37:05.942Z,45.07
2023-06-26T08:39:09.600Z,45.05
2023-06-26T08:41:11.556Z,44.82
2023-06-26T08:43:13.141Z,45.12
2023-06-26T08:45:14.697Z,44.95
2023-06-26T08:47:16.511Z,44.91
2023-06-26T08:49:45.038Z,44.75
2023-06-26T08:51:51.506Z,45.12
2023-06-26T08:53:59.964Z,44.98
2023-06-26T08:56:02.962Z,45.28
2023-06-26T08:58:05.086Z,44.74
2023-06-26T09:00:09.533Z,44.68
2023-06-26T09:02:11.580Z,45.06
2023-06-26T09:04:13.493Z,44.78
2023-06-26T09:06:15.099Z,45.00
2023-06-26T09:08:16.861Z,44.79
2023-06-26T09:10:18.380Z,44.80
2023-06-26T09:12:21.155Z,45.11
2023-06-26T09:14:22.801Z,45.04
2023-06-26T09:16:28.042Z,45.08
2023-06-26T09:18:29.845Z,44.99
2023-06-26T09:20:34.109Z,44.67
2023-06-26T09:22:39.583Z,44.95
2023-06-26T09:24:42.041Z,44.77
2023-06-26T09:26:44.082Z,44.67
2023-06-26T09:28:45.574Z,44.59
2023-06-26T09:30:47.372Z,44.63
2023-06-26T09:32:50.560Z,44.76
2023-06-26T09:34:53.941Z,44.61
2023-06-26T09:36:56.427Z,44.88
2023-06-26T09:38:58.050Z,44.58
2023-06-26T09:40:59.535Z,44.55
2023-06-26T09:43:07.596Z,44.62
2023-06-26T09:45:18.550Z,44.62
2023-06-26T09:47:20.589Z,44.86
2023-06-26T09:49:22.339Z,44.76
2023-06-26T09:51:23.943Z,44.61
2023-06-26T09:53:26.584Z,44.54
2023-06-26T09:55:28.242Z,44.51
2023-06-26T09:57:29.734Z,44.49
2023-06-26T09:59:31.428Z,44.74
2023-06-26T10:01:33.866Z,44.49
2023-06-26T10:03:35.699Z,44.47
2023-06-26T10:05:37.204Z,44.79
2023-06-26T10:07:39.331Z,44.43
2023-06-26T10:09:45.250Z,44.66
2023-06-26T10:11:46.827Z,44.49
2023-06-26T10:13:50.279Z,44.76
2023-06-26T10:15:52.964Z,44.34
2023-06-26T10:17:56.877Z,44.80
2023-06-26T10:20:00.240Z,44.41
2023-06-26T10:22:02.888Z,44.29
2023-06-26T10:24:05.964Z,43.99
2023-06-26T10:26:08.177Z,44.39
2023-06-26T10:28:10.822Z,44.31
2023-06-26T10:30:14.407Z,44.39
2023-06-26T10:32:16.869Z,44.37
2023-06-26T10:34:18.739Z,44.17
2023-06-26T10:36:22.012Z,44.22
2023-06-26T10:38:43.490Z,44.23
2023-06-26T10:40:46.875Z,44.16
2023-06-26T10:42:48.363Z,43.67
2023-06-26T10:44:49.905Z,43.85
2023-06-26T10:46:55.459Z,43.94
2023-06-26T10:48:58.772Z,43.72
2023-06-26T10:51:14.085Z,44.18
2023-06-26T10:53:36.112Z,43.87
2023-06-26T10:55:37.846Z,43.80
2023-06-26T10:57:42.268Z,44.16
2023-06-26T10:59:44.051Z,43.72
2023-06-26T11:01:47.227Z,43.54
2023-06-26T11:04:02.869Z,43.62
2023-06-26T11:06:15.015Z,43.57
2023-06-26T11:08:20.287Z,43.63
2023-06-26T11:10:21.758Z,43.54
2023-06-26T11:12:45.139Z,43.93
2023-06-26T11:14:47.229Z,43.92
2023-06-26T11:16:50.599Z,43.07
2023-06-26T11:18:52.329Z,43.30
2023-06-26T11:20:54.279Z,43.50
2023-06-26T11:22:57.823Z,43.76
2023-06-26T11:25:00.512Z,42.92
2023-06-26T11:27:03.542Z,43.41
2023-06-26T11:29:05.251Z,43.24
2023-06-26T11:31:06.827Z,43.10
2023-06-26T11:33:08.889Z,43.38
2023-06-26T11:35:10.775Z,43.33
2023-06-26T11:37:13.095Z,43.02
2023-06-26T11:39:14.603Z,43.40
2023-06-26T11:41:18.976Z,43.26
2023-06-26T11:43:21.277Z,43.00
2023-06-26T11:45:22.813Z,43.03
2023-06-26T11:47:25.329Z,42.96
2023-06-26T11:49:27.704Z,43.04
2023-06-26T11:51:29.660Z,42.91
2023-06-26T11:53:31.225Z,43.24
2023-06-26T11:55:41.665Z,42.99
2023-06-26T11:57:43.156Z,43.13
2023-06-26T11:59:44.787Z,42.86
2023-06-26T12:01:46.537Z,43.23
2023-06-26T12:03:48.297Z,42.65
2023-06-26T12:05:50.893Z,42.92
2023-06-26T12:07:52.600Z,42.78
2023-06-26T12:09:54.619Z,42.88
2023-06-26T12:11:57.202Z,42.84
2023-06-26T12:13:59.226Z,42.70
2023-06-26T12:16:00.840Z,42.79
2023-06-26T12:18:08.633Z,42.68
2023-06-26T12:20:23.146Z,42.91
2023-06-26T12:24:31.229Z,42.85
2023-06-26T12:26:37.844Z,42.69
2023-06-26T12:28:39.656Z,42.74
2023-06-26T12:37:02.416Z,42.08
2023-06-26T12:39:04.204Z,42.30
2023-06-26T12:41:05.715Z,42.50
2023-06-26T12:47:17.211Z,41.88
2023-06-26T12:51:27.747Z,42.22
2023-06-26T12:53:29.195Z,41.88
2023-06-26T12:55:30.634Z,42.27
2023-06-26T12:57:32.517Z,41.92
2023-06-26T12:59:34.934Z,41.76
2023-06-26T13:01:36.506Z,41.29
2023-06-26T13:03:38.475Z,41.19
2023-06-26T13:05:40.019Z,41.58
2023-06-26T13:07:41.728Z,41.57
2023-06-26T13:09:43.294Z,41.97
2023-06-26T13:11:44.872Z,40.98
2023-06-26T13:13:54.138Z,41.54
2023-06-26T13:16:06.711Z,41.36
2023-06-26T13:18:08.196Z,40.76
2023-06-26T13:20:10.101Z,40.74
2023-06-26T13:22:11.598Z,41.04
2023-06-26T13:24:14.057Z,41.65
2023-06-26T13:26:27.821Z,41.70
2023-06-26T13:28:37.742Z,41.27
2023-06-26T13:30:39.484Z,40.92
2023-06-26T13:32:41.412Z,40.73
2023-06-26T13:34:42.922Z,41.21
2023-06-26T13:36:44.717Z,41.23
2023-06-26T13:38:46.601Z,41.19
2023-06-26T13:40:48.105Z,41.05
2023-06-26T13:42:50.456Z,41.08
2023-06-26T13:45:02.554Z,40.89
2023-06-26T13:47:06.733Z,41.33
2023-06-26T13:49:09.415Z,41.40
2023-06-26T13:51:10.959Z,40.89
2023-06-26T13:53:12.525Z,40.59
2023-06-26T13:55:14.028Z,40.42
2023-06-26T13:57:15.647Z,40.77
2023-06-26T13:59:17.368Z,40.68
2023-06-26T14:01:18.914Z,41.04
2023-06-26T14:03:20.500Z,41.38
2023-06-26T14:05:33.326Z,40.81
2023-06-26T14:07:35.886Z,41.08
2023-06-26T14:09:37.534Z,40.95
2023-06-26T14:11:39.055Z,41.14
2023-06-26T14:13:40.611Z,40.90
2023-06-26T14:15:42.583Z,40.65
2023-06-26T14:17:44.180Z,40.32
2023-06-26T14:19:46.936Z,39.99
2023-06-26T14:21:48.400Z,40.86
2023-06-26T14:23:49.871Z,40.61
2023-06-26T14:25:51.752Z,39.67
2023-06-26T14:27:53.324Z,40.39
2023-06-26T14:29:54.807Z,40.74
2023-06-26T14:31:56.758Z,40.33
2023-06-26T14:34:00.220Z,40.73
2023-06-26T14:36:01.984Z,40.54
2023-06-26T14:38:03.825Z,40.15
2023-06-26T14:40:05.570Z,40.20
2023-06-26T14:42:08.022Z,40.21
2023-06-26T14:44:12.416Z,40.15
2023-06-26T14:46:14.868Z,39.86
2023-06-26T14:48:16.757Z,39.88
2023-06-26T14:50:18.357Z,39.92
2023-06-26T14:52:19.824Z,40.49
2023-06-26T14:54:21.373Z,40.43
2023-06-26T14:56:23.033Z,40.34
2023-06-26T14:58:24.690Z,40.05
2023-06-26T15:00:27.538Z,39.98
2023-06-26T15:02:29.095Z,39.98
2023-06-26T15:04:30.640Z,39.93
2023-06-26T15:06:32.198Z,40.23
2023-06-26T15:08:33.821Z,39.85
2023-06-26T15:10:35.268Z,40.03
2023-06-26T15:12:36.859Z,40.03
2023-06-26T15:14:38.402Z,40.05
2023-06-26T15:16:40.089Z,40.41
2023-06-26T15:18:41.990Z,40.07
2023-06-26T15:20:43.556Z,40.12
2023-06-26T15:22:45.025Z,39.88
2023-06-26T15:24:46.864Z,39.88
2023-06-26T15:26:48.377Z,40.06
2023-06-26T15:28:50.136Z,40.38
2023-06-26T15:30:51.809Z,40.57
2023-06-26T15:32:53.311Z,40.11
2023-06-26T15:34:55.395Z,39.75
2023-06-26T15:36:56.973Z,40.24
2023-06-26T15:38:58.479Z,40.14
2023-06-26T15:41:00.195Z,39.56
2023-06-26T15:43:01.681Z,39.82
2023-06-26T15:45:03.226Z,39.84
2023-06-26T15:47:04.822Z,40.46
2023-06-26T15:49:06.288Z,40.41
2023-06-26T15:51:09.499Z,40.75
2023-06-26T15:53:16.556Z,40.88
2023-06-26T15:55:18.112Z,40.31
2023-06-26T15:57:19.566Z,40.19
2023-06-26T15:59:21.109Z,39.90
2023-06-26T16:01:22.750Z,40.01
2023-06-26T16:03:24.226Z,40.01
2023-06-26T16:05:26.248Z,40.54
2023-06-26T16:09:32.362Z,39.80
2023-06-26T16:11:34.102Z,40.38
2023-06-26T16:13:35.801Z,40.73
2023-06-26T16:15:37.436Z,40.59
2023-06-26T16:17:39.127Z,40.05
2023-06-26T16:19:40.725Z,40.35
2023-06-26T16:21:42.423Z,40.58
2023-06-26T16:23:44.003Z,40.43
2023-06-26T16:25:46.922Z,40.01
2023-06-26T16:27:49.647Z,40.60
2023-06-26T16:29:51.212Z,40.52
2023-06-26T16:31:55.706Z,40.69
2023-06-26T16:33:57.784Z,40.66
2023-06-26T16:35:59.482Z,40.65
2023-06-26T16:38:01.981Z,40.44
2023-06-26T16:40:04.279Z,40.75
2023-06-26T16:42:06.242Z,40.44
2023-06-26T16:44:07.775Z,41.00
2023-06-26T16:46:09.297Z,40.80
2023-06-26T16:48:10.776Z,40.79
2023-06-26T16:50:12.471Z,40.17
2023-06-26T16:52:14.360Z,40.37
2023-06-26T16:54:15.891Z,40.95
2023-06-26T16:56:19.194Z,40.89
2023-06-26T16:58:23.025Z,40.85
2023-06-26T17:00:24.603Z,40.96
2023-06-26T17:02:27.118Z,40.87
2023-06-26T17:04:29.226Z,40.71
2023-06-26T17:06:30.727Z,40.84
2023-06-26T17:08:32.158Z,40.77
2023-06-26T17:10:33.928Z,40.98
2023-06-26T17:12:35.424Z,41.09
2023-06-26T17:14:36.906Z,40.84
2023-06-26T17:16:38.464Z,40.88
2023-06-26T17:18:39.977Z,40.86
2023-06-26T17:20:41.645Z,40.81
2023-06-26T17:22:45.070Z,41.25
2023-06-26T17:24:47.799Z,40.84
2023-06-26T17:26:49.395Z,40.99
2023-06-26T17:28:51.105Z,41.22
2023-06-26T17:30:52.587Z,41.11
2023-06-26T17:32:55.946Z,41.19
2023-06-26T17:34:57.608Z,41.15
2023-06-26T17:36:59.090Z,41.21
2023-06-26T17:39:01.572Z,41.40
2023-06-26T17:41:03.238Z,41.42
2023-06-26T17:43:04.869Z,41.62
2023-06-26T17:45:07.816Z,41.30
2023-06-26T17:47:09.366Z,41.45
2023-06-26T17:49:10.875Z,41.46
2023-06-26T17:51:12.796Z,41.64
2023-06-26T17:53:14.285Z,41.62
2023-06-26T17:55:15.839Z,41.42
2023-06-26T17:57:17.329Z,41.41
2023-06-26T17:59:19.269Z,41.35
2023-06-26T18:01:20.764Z,41.29
2023-06-26T18:03:22.470Z,41.38
2023-06-26T18:05:25.015Z,41.59
2023-06-26T18:07:26.579Z,41.42
2023-06-26T18:09:28.269Z,41.48
2023-06-26T18:11:31.772Z,41.50
2023-06-26T18:13:34.328Z,41.76
2023-06-26T18:15:35.981Z,41.67
2023-06-26T18:17:37.600Z,41.76
2023-06-26T18:19:39.055Z,41.60
2023-06-26T18:21:40.590Z,41.39
2023-06-26T18:23:42.246Z,41.29
2023-06-26T18:25:44.166Z,41.37
2023-06-26T18:27:45.876Z,41.69
2023-06-26T18:29:47.444Z,41.50
2023-06-26T18:31:49.181Z,41.52
2023-06-26T18:33:50.897Z,41.50
2023-06-26T18:35:52.357Z,41.28
2023-06-26T18:37:53.965Z,41.46
2023-06-26T18:39:55.514Z,41.52
2023-06-26T18:41:57.000Z,41.55
2023-06-26T18:43:58.541Z,41.41
2023-06-26T18:45:59.981Z,41.51
2023-06-26T18:48:02.248Z,41.49
2023-06-26T18:50:04.121Z,41.38
2023-06-26T18:52:05.787Z,41.50
2023-06-26T18:54:07.296Z,41.43
2023-06-26T18:58:15.300Z,41.51
2023-06-26T19:00:19.440Z,41.95
2023-06-26T19:02:21.264Z,41.68
2023-06-26T19:04:24.555Z,41.47
2023-06-26T19:06:26.149Z,41.41
2023-06-26T19:08:27.730Z,41.59
2023-06-26T19:10:29.187Z,41.33
2023-06-26T19:12:30.696Z,41.54
2023-06-26T19:14:32.658Z,41.47
2023-06-26T19:16:34.319Z,41.41
2023-06-26T19:18:37.441Z,41.66
2023-06-26T19:20:39.016Z,41.49
2023-06-26T19:22:41.057Z,41.61
2023-06-26T19:24:42.659Z,41.42
2023-06-26T19:26:44.321Z,41.50
2023-06-26T19:28:45.864Z,41.42
2023-06-26T19:30:47.435Z,41.51
2023-06-26T19:34:55.291Z,41.82
2023-06-26T19:36:56.972Z,41.38
2023-06-26T19:38:58.604Z,41.66
2023-06-26T19:45:08.178Z,41.94
2023-06-26T19:47:09.846Z,41.52
2023-06-26T19:49:11.695Z,41.95
2023-06-26T19:51:13.157Z,41.54
2023-06-26T19:55:21.350Z,41.55
2023-06-26T19:57:22.945Z,41.60
2023-06-26T19:59:26.008Z,41.89
2023-06-26T20:01:27.611Z,41.76
2023-06-26T20:03:29.179Z,41.65
2023-06-26T20:05:31.594Z,41.61
2023-06-26T20:09:34.949Z,41.81
2023-06-26T20:11:36.435Z,41.72
2023-06-26T20:13:37.882Z,41.74
2023-06-26T20:15:39.716Z,42.00
2023-06-26T20:17:42.955Z,41.69
2023-06-26T20:19:44.967Z,41.62
2023-06-26T20:21:46.894Z,41.69
2023-06-26T20:23:48.403Z,42.06
2023-06-26T20:25:50.435Z,41.81
2023-06-26T20:27:51.917Z,41.78
2023-06-26T20:29:53.362Z,41.75
2023-06-26T20:31:54.897Z,42.00
2023-06-26T20:33:56.504Z,41.75
2023-06-26T20:35:57.936Z,41.79
2023-06-26T20:38:01.224Z,41.94
2023-06-26T20:40:03.079Z,41.98
2023-06-26T20:42:05.009Z,42.11
2023-06-26T20:44:06.692Z,41.91
2023-06-26T20:46:08.501Z,41.87
2023-06-26T20:48:10.532Z,42.24
2023-06-26T20:50:14.143Z,41.71
2023-06-26T20:52:17.653Z,42.23
2023-06-26T20:54:19.437Z,41.86
2023-06-26T20:56:21.208Z,41.79
2023-06-26T20:58:22.721Z,41.83
2023-06-26T21:00:24.301Z,41.80
2023-06-26T21:02:25.862Z,41.86
2023-06-26T21:04:27.359Z,41.92
2023-06-26T21:06:28.819Z,42.12
2023-06-26T21:08:30.484Z,41.92
2023-06-26T21:10:31.997Z,42.02
2023-06-26T21:12:33.500Z,42.04
2023-06-26T21:14:34.967Z,42.01
2023-06-26T21:16:38.230Z,42.09
2023-06-26T21:18:39.806Z,41.99
2023-06-26T21:20:41.512Z,42.00
2023-06-26T21:22:43.137Z,42.21
2023-06-26T21:24:44.862Z,41.90
2023-06-26T21:26:46.294Z,41.91
2023-06-26T21:28:47.813Z,42.26
2023-06-26T21:30:49.424Z,42.04
2023-06-26T21:32:51.005Z,42.02
2023-06-26T21:34:52.510Z,42.00
2023-06-26T21:36:55.215Z,42.04
2023-06-26T21:38:56.702Z,41.98
2023-06-26T21:40:58.262Z,42.09
2023-06-26T21:42:59.852Z,42.27
2023-06-26T21:45:01.473Z,42.36
2023-06-26T21:47:03.151Z,41.92
2023-06-26T21:53:18.106Z,42.14
2023-06-26T21:55:19.799Z,42.22
2023-06-26T21:57:21.466Z,42.13
2023-06-26T21:59:23.306Z,42.00
2023-06-26T22:03:31.497Z,42.36
2023-06-26T22:05:33.055Z,42.33
2023-06-26T22:07:40.218Z,42.10
2023-06-26T22:09:53.139Z,42.12
2023-06-26T22:11:54.781Z,42.25
2023-06-26T22:13:56.312Z,42.31
2023-06-26T22:15:57.949Z,42.13
2023-06-26T22:17:59.575Z,42.11
2023-06-26T22:20:01.107Z,42.01
2023-06-26T22:22:02.795Z,42.16
2023-06-26T22:24:04.330Z,42.37
2023-06-26T22:26:06.041Z,42.02
2023-06-26T22:28:07.637Z,42.33
2023-06-26T22:30:09.362Z,42.25
2023-06-26T22:32:10.861Z,42.11
2023-06-26T22:34:15.002Z,42.39
2023-06-26T22:36:17.701Z,41.92
2023-06-26T22:38:19.161Z,42.07
2023-06-26T22:40:20.745Z,41.99
2023-06-26T22:42:22.386Z,42.05
2023-06-26T22:44:23.911Z,42.06
2023-06-26T22:46:25.405Z,42.22
2023-06-26T22:48:27.843Z,42.11
2023-06-26T22:50:29.343Z,42.37
2023-06-26T22:52:30.982Z,42.16
2023-06-26T22:54:32.732Z,42.35
2023-06-26T22:56:50.065Z,42.08
2023-06-26T22:58:55.764Z,42.33
2023-06-26T23:01:01.598Z,42.07
2023-06-26T23:03:03.342Z,41.98
2023-06-26T23:05:07.599Z,42.13
2023-06-26T23:07:09.205Z,42.31
2023-06-26T23:09:11.474Z,42.31
2023-06-26T23:11:12.947Z,41.96
2023-06-26T23:13:17.657Z,42.21
2023-06-26T23:15:19.101Z,42.14
2023-06-26T23:17:20.644Z,42.07
2023-06-26T23:19:24.726Z,42.01
2023-06-26T23:21:29.319Z,42.34
2023-06-26T23:23:30.813Z,42.14
2023-06-26T23:25:35.348Z,42.25
2023-06-26T23:27:42.623Z,42.14
2023-06-26T23:29:44.378Z,42.37
2023-06-26T23:31:48.725Z,42.20
2023-06-26T23:33:50.917Z,42.02
2023-06-26T23:35:54.747Z,42.10
2023-06-26T23:37:56.696Z,42.33
2023-06-26T23:39:58.235Z,42.25
2023-06-26T23:41:59.936Z,42.22
2023-06-26T23:44:04.392Z,42.34
2023-06-26T23:46:11.211Z,42.19
2023-06-26T23:48:12.937Z,42.33
2023-06-26T23:50:14.644Z,42.22
2023-06-26T23:52:16.195Z,42.24
2023-06-26T23:54:17.819Z,42.03
2023-06-26T23:56:19.294Z,42.06
2023-06-26T23:58:20.802Z,42.00
